Time;durP1;ratioP1;P1;durP2;ratioP2;P2;SDS_P1;SDS_P2;PMS_P1;PMS_P2;Temp;Humidity;BMP_temperature;BMP_pressure;BME280_temperature;BME280_humidity;BME280_pressure;Samples;Min_cycle;Max_cycle;Signal;HPM_P1;HPM_P2
2021/01/22 00:03:58;;;;;;;6.63;1.23;;;6.50;93.10;;;;;;8261176;28;20050;-76
2021/01/22 00:08:00;;;;;;;8.05;1.27;;;6.60;93.00;;;;;;8277243;28;20069;-77
2021/01/22 00:12:02;;;;;;;8.30;1.07;;;6.50;93.00;;;;;;8263206;28;20062;-78
2021/01/22 00:16:04;;;;;;;4.20;1.48;;;6.50;92.80;;;;;;8267330;28;20050;-77
2021/01/22 00:20:06;;;;;;;3.75;1.20;;;6.50;92.90;;;;;;8260452;28;20054;-76
2021/01/22 00:24:08;;;;;;;3.88;1.00;;;6.50;93.00;;;;;;8254894;28;20462;-75
2021/01/22 00:28:10;;;;;;;3.97;0.93;;;6.40;93.00;;;;;;8225138;28;20050;-74
2021/01/22 00:32:12;;;;;;;9.35;1.15;;;6.40;93.10;;;;;;8258606;28;20066;-74
2021/01/22 00:36:14;;;;;;;3.80;1.00;;;6.40;93.20;;;;;;8262634;28;20041;-73
2021/01/22 00:40:15;;;;;;;5.63;1.25;;;6.40;93.40;;;;;;8253436;28;20046;-74
2021/01/22 00:44:17;;;;;;;6.03;1.00;;;6.30;93.30;;;;;;8266538;28;20455;-74
2021/01/22 00:48:19;;;;;;;6.32;1.20;;;6.30;93.50;;;;;;8263616;28;20050;-74
2021/01/22 00:52:20;;;;;;;5.25;1.30;;;6.50;93.80;;;;;;8264238;28;20117;-74
2021/01/22 00:56:22;;;;;;;5.72;1.05;;;6.30;93.60;;;;;;8243920;28;20057;-74
2021/01/22 01:00:30;;;;;;;5.18;1.50;;;6.30;93.70;;;;;;8248251;28;20093;-74
2021/01/22 01:04:52;;;;;;;14.00;1.33;;;6.30;93.80;;;;;;8243270;28;20570;-75
2021/01/22 01:08:53;;;;;;;3.13;0.90;;;6.30;94.00;;;;;;8234693;28;20745;-76
2021/01/22 01:13:18;;;;;;;3.75;0.82;;;6.70;94.30;;;;;;8230615;28;20050;-78
2021/01/22 01:17:40;;;;;;;5.45;1.27;;;6.30;94.30;;;;;;8239500;28;20057;-77
2021/01/22 01:21:42;;;;;;;5.45;1.10;;;6.20;94.50;;;;;;8243715;28;20074;-76
2021/01/22 01:25:43;;;;;;;4.13;1.00;;;6.10;94.50;;;;;;8249143;28;20567;-76
2021/01/22 01:29:45;;;;;;;6.37;1.30;;;6.10;94.70;;;;;;8233228;28;20129;-76
2021/01/22 01:33:46;;;;;;;2.23;1.03;;;6.10;94.70;;;;;;8233037;28;20114;-76
2021/01/22 01:37:48;;;;;;;9.43;1.30;;;6.10;94.90;;;;;;8226754;28;20545;-75
2021/01/22 01:41:49;;;;;;;5.73;1.17;;;6.00;94.90;;;;;;8241211;28;20112;-75
2021/01/22 01:45:51;;;;;;;3.60;0.88;;;6.00;95.20;;;;;;8230677;28;20129;-75
2021/01/22 01:49:52;;;;;;;4.47;1.10;;;6.00;95.20;;;;;;8245054;28;20050;-74
2021/01/22 01:53:54;;;;;;;5.83;0.93;;;6.00;95.30;;;;;;8243098;28;20054;-76
2021/01/22 01:57:56;;;;;;;6.50;1.38;;;6.00;95.30;;;;;;8268516;28;20078;-76
2021/01/22 02:01:58;;;;;;;4.15;1.25;;;6.00;95.60;;;;;;8257261;28;20080;-76
2021/01/22 02:06:03;;;;;;;2.33;1.02;;;5.90;95.60;;;;;;8227000;28;20107;-74
2021/01/22 02:10:06;;;;;;;7.63;1.75;;;6.00;95.60;;;;;;8207752;28;20045;-74
2021/01/22 02:14:09;;;;;;;4.75;1.02;;;7.50;96.00;;;;;;8236665;28;20080;-74
2021/01/22 02:18:11;;;;;;;7.13;2.10;;;5.90;95.60;;;;;;8243080;28;20507;-78
2021/01/22 02:22:12;;;;;;;6.25;1.40;;;5.90;95.70;;;;;;8233629;28;20062;-75
2021/01/22 02:26:20;;;;;;;4.50;1.20;;;5.90;95.70;;;;;;8231514;28;20058;-75
2021/01/22 02:30:21;;;;;;;6.60;1.70;;;5.90;95.80;;;;;;8231720;28;20109;-75
2021/01/22 02:34:28;;;;;;;4.45;1.50;;;5.90;95.90;;;;;;8243200;28;20141;-77
2021/01/22 02:38:30;;;;;;;5.18;1.20;;;6.00;95.90;;;;;;8236930;28;20065;-76
2021/01/22 02:42:32;;;;;;;2.95;1.40;;;5.90;96.00;;;;;;8228366;28;20047;-76
2021/01/22 02:46:35;;;;;;;3.55;1.05;;;7.00;96.20;;;;;;8234897;28;20042;-77
2021/01/22 02:50:38;;;;;;;6.13;1.70;;;5.90;95.90;;;;;;8243128;28;20499;-77
2021/01/22 02:54:39;;;;;;;4.93;1.42;;;5.90;96.00;;;;;;8251295;28;20109;-76
2021/01/22 02:59:06;;;;;;;2.40;1.20;;;5.90;96.00;;;;;;8233489;28;20786;-76
2021/01/22 03:03:37;;;;;;;4.38;1.70;;;5.90;96.00;;;;;;8227309;28;20093;-76
2021/01/22 03:07:47;;;;;;;3.80;1.40;;;5.90;96.10;;;;;;8225145;28;20109;-77
2021/01/22 03:11:54;;;;;;;4.43;1.60;;;6.00;96.10;;;;;;8226722;28;20058;-77
2021/01/22 03:15:55;;;;;;;5.28;2.00;;;6.00;96.10;;;;;;8240272;28;20054;-77
2021/01/22 03:19:57;;;;;;;4.70;2.00;;;5.90;96.10;;;;;;8229003;28;20054;-76
2021/01/22 03:23:59;;;;;;;5.47;1.95;;;5.90;96.20;;;;;;8240465;28;20049;-77
2021/01/22 03:28:00;;;;;;;4.30;1.45;;;5.80;96.20;;;;;;8220716;28;20055;-78
2021/01/22 03:32:04;;;;;;;5.20;1.55;;;5.90;96.30;;;;;;8196025;28;21213;-78
2021/01/22 03:36:06;;;;;;;4.53;1.90;;;5.90;96.30;;;;;;8241593;28;20134;-74
2021/01/22 03:40:08;;;;;;;4.43;1.48;;;5.90;96.70;;;;;;8257127;28;20050;-78
2021/01/22 03:44:11;;;;;;;3.35;1.58;;;5.80;96.50;;;;;;8255989;28;20058;-78
2021/01/22 03:48:13;;;;;;;5.47;1.98;;;5.70;96.50;;;;;;8239692;28;20139;-77
2021/01/22 03:52:14;;;;;;;5.68;1.75;;;5.70;96.60;;;;;;8263036;28;20057;-76
2021/01/22 03:56:16;;;;;;;3.23;1.30;;;8.20;97.00;;;;;;8242503;28;20072;-75
2021/01/22 04:00:17;;;;;;;3.38;1.02;;;5.60;96.40;;;;;;8240206;28;20043;-74
2021/01/22 04:04:19;;;;;;;2.45;0.70;;;5.50;96.50;;;;;;8243652;28;20580;-76
2021/01/22 04:08:33;;;;;;;5.35;0.80;;;5.40;96.40;;;;;;8239764;28;20061;-76
2021/01/22 04:12:35;;;;;;;4.00;0.53;;;5.30;96.50;;;;;;8250840;28;20054;-75
2021/01/22 04:16:37;;;;;;;1.98;0.60;;;5.10;96.60;;;;;;8237772;28;20047;-74
2021/01/22 04:20:38;;;;;;;2.47;0.60;;;5.00;96.90;;;;;;8235221;28;20050;-74
2021/01/22 04:24:40;;;;;;;1.30;0.67;;;4.90;97.00;;;;;;8250275;28;20054;-75
2021/01/22 04:28:41;;;;;;;3.00;0.70;;;4.90;97.00;;;;;;8260094;28;20061;-74
2021/01/22 04:32:43;;;;;;;2.27;0.90;;;4.90;96.90;;;;;;8216636;28;20101;-75
2021/01/22 04:36:44;;;;;;;4.28;0.80;;;4.90;96.90;;;;;;8244171;28;20046;-75
2021/01/22 04:40:46;;;;;;;3.00;0.80;;;4.90;96.80;;;;;;8235763;28;20093;-73
2021/01/22 04:44:49;;;;;;;3.17;0.73;;;4.90;96.80;;;;;;8245947;28;20074;-76
2021/01/22 04:48:50;;;;;;;3.25;0.90;;;4.80;96.80;;;;;;8259102;28;20137;-77
2021/01/22 04:52:56;;;;;;;1.83;0.30;;;6.20;97.30;;;;;;8264358;28;20085;-76
2021/01/22 04:57:00;;;;;;;3.80;0.80;;;5.50;97.30;;;;;;8272628;28;20078;-74
2021/01/22 05:01:03;;;;;;;3.92;0.70;;;6.60;97.30;;;;;;8254119;28;20050;-73
2021/01/22 05:05:07;;;;;;;2.75;0.63;;;6.10;97.30;;;;;;8259246;28;20144;-73
2021/01/22 05:09:08;;;;;;;4.60;0.63;;;4.50;97.10;;;;;;8241239;28;20060;-73
2021/01/22 05:13:10;;;;;;;2.97;0.73;;;4.50;97.00;;;;;;8252092;28;20096;-73
2021/01/22 05:17:13;;;;;;;2.67;0.70;;;4.50;97.10;;;;;;8248890;28;20054;-76
2021/01/22 05:21:16;;;;;;;3.75;0.60;;;4.40;97.20;;;;;;8240342;28;20165;-75
2021/01/22 05:25:17;;;;;;;;;;;4.40;98.50;;;;;;8244182;28;20078;-75
2021/01/22 05:29:18;;;;;;;1.95;1.02;;;4.40;98.60;;;;;;8237546;28;20597;-75
2021/01/22 05:33:22;;;;;;;4.37;0.80;;;4.30;98.40;;;;;;8216342;28;20049;-76
2021/01/22 05:37:25;;;;;;;5.07;0.82;;;4.40;98.20;;;;;;8248838;28;20467;-76
2021/01/22 05:41:27;;;;;;;6.43;0.60;;;5.40;98.70;;;;;;8245262;28;20081;-77
2021/01/22 05:45:40;;;;;;;7.25;0.77;;;4.40;97.80;;;;;;8224842;28;20112;-77
2021/01/22 05:50:00;;;;;;;4.10;0.57;;;6.50;98.30;;;;;;8235100;28;20073;-77
2021/01/22 05:54:02;;;;;;;4.05;0.60;;;4.50;97.60;;;;;;8250974;28;20069;-76
2021/01/22 05:58:04;;;;;;;5.25;0.70;;;4.50;97.80;;;;;;8255675;28;20066;-78
2021/01/22 06:02:35;;;;;;;8.60;0.80;;;4.50;97.50;;;;;;8247411;28;20137;-75
2021/01/22 06:06:37;;;;;;;6.97;0.98;;;4.50;98.00;;;;;;8219063;28;20062;-75
2021/01/22 06:10:39;;;;;;;11.32;1.45;;;4.60;98.30;;;;;;8236776;28;20058;-75
2021/01/22 06:14:41;;;;;;;5.95;0.93;;;4.60;98.30;;;;;;8235660;28;20096;-76
2021/01/22 06:19:10;;;;;;;8.70;1.05;;;4.60;97.90;;;;;;8250249;28;20062;-74
2021/01/22 06:23:13;;;;;;;11.15;1.05;;;6.20;98.70;;;;;;8262385;28;20216;-76
2021/01/22 06:27:16;;;;;;;5.85;1.33;;;4.60;98.40;;;;;;8228971;28;20141;-72
2021/01/22 06:31:18;;;;;;;6.30;0.90;;;4.60;98.60;;;;;;8230272;28;20054;-73
2021/01/22 06:35:22;;;;;;;6.13;1.20;;;4.60;98.00;;;;;;8221679;28;20136;-72
2021/01/22 06:39:24;;;;;;;11.50;1.45;;;4.70;98.10;;;;;;8237944;28;20112;-72
2021/01/22 06:43:27;;;;;;;11.05;1.52;;;4.80;98.60;;;;;;8235849;28;20042;-75
2021/01/22 06:47:29;;;;;;;15.88;2.60;;;4.80;98.50;;;;;;8230506;28;20137;-74
2021/01/22 06:51:35;;;;;;;15.05;1.98;;;4.80;99.30;;;;;;8228427;28;20589;-76
2021/01/22 06:55:52;;;;;;;13.30;1.63;;;4.80;99.10;;;;;;8228407;28;20050;-74
2021/01/22 06:59:54;;;;;;;15.15;2.53;;;4.90;99.00;;;;;;8229236;28;20050;-73
2021/01/22 07:03:55;;;;;;;16.45;2.10;;;4.90;99.30;;;;;;8250590;28;20506;-74
2021/01/22 07:07:57;;;;;;;16.40;2.07;;;4.90;98.30;;;;;;8205423;28;20042;-74
2021/01/22 07:11:59;;;;;;;13.02;1.80;;;5.00;99.00;;;;;;8232853;28;20907;-74
2021/01/22 07:16:04;;;;;;;15.90;2.50;;;5.00;99.60;;;;;;8221984;28;20060;-76
2021/01/22 07:20:08;;;;;;;11.48;1.95;;;5.00;99.40;;;;;;8245749;28;20061;-76
2021/01/22 07:24:15;;;;;;;16.55;2.40;;;5.00;99.10;;;;;;8222905;28;20449;-74
2021/01/22 07:28:16;;;;;;;14.90;2.35;;;5.00;98.50;;;;;;8226578;28;20042;-74
2021/01/22 07:32:28;;;;;;;12.90;2.15;;;5.00;99.60;;;;;;8225720;28;20510;-74
2021/01/22 07:36:30;;;;;;;;;;;4.90;98.90;;;;;;8196986;28;20066;-76
2021/01/22 07:40:31;;;;;;;15.98;2.35;;;4.90;99.20;;;;;;8200683;28;20339;-75
2021/01/22 07:44:34;;;;;;;14.20;2.30;;;5.40;99.00;;;;;;8211475;28;20102;-73
2021/01/22 07:48:37;;;;;;;12.68;1.88;;;4.90;98.70;;;;;;8220296;28;20047;-74
2021/01/22 07:52:49;;;;;;;17.08;2.30;;;4.90;98.60;;;;;;8227506;28;20058;-75
2021/01/22 07:56:50;;;;;;;16.93;2.40;;;4.90;98.50;;;;;;8237662;28;20050;-74
2021/01/22 08:00:52;;;;;;;18.83;2.70;;;4.80;98.90;;;;;;8229878;28;20116;-75
2021/01/22 08:05:01;;;;;;;12.43;2.10;;;4.80;98.60;;;;;;8243258;28;20465;-74
2021/01/22 08:09:09;;;;;;;20.13;2.72;;;4.80;98.30;;;;;;8235887;28;20100;-75
2021/01/22 08:13:10;;;;;;;14.93;2.50;;;4.80;98.30;;;;;;8240419;28;20109;-75
2021/01/22 08:17:13;;;;;;;;;;;4.80;98.30;;;;;;8245828;28;20050;-74
2021/01/22 08:21:15;;;;;;;18.27;3.72;;;4.80;98.30;;;;;;8228718;28;19932;-74
2021/01/22 08:25:26;;;;;;;21.88;3.10;;;4.80;98.60;;;;;;8224467;28;20199;-75
2021/01/22 08:29:29;;;;;;;22.92;2.72;;;4.90;99.10;;;;;;8213524;28;20043;-74
2021/01/22 08:33:31;;;;;;;15.63;2.88;;;5.00;99.00;;;;;;8228232;28;20054;-76
2021/01/22 08:37:32;;;;;;;19.75;2.33;;;4.80;98.60;;;;;;8250521;28;20054;-75
2021/01/22 08:41:35;;;;;;;17.52;2.80;;;4.80;99.50;;;;;;8235527;28;20059;-75
2021/01/22 08:45:37;;;;;;;18.20;2.70;;;4.90;99.70;;;;;;8197203;28;20053;-75
2021/01/22 08:49:38;;;;;;;18.85;2.25;;;5.70;99.70;;;;;;8236665;28;20046;-74
2021/01/22 08:53:52;;;;;;;14.50;2.10;;;3.30;98.10;;;;;;8241479;28;20377;-75
2021/01/22 08:58:05;;;;;;;18.88;2.35;;;5.00;98.40;;;;;;8245455;28;20472;-75
2021/01/22 09:02:06;;;;;;;16.23;2.95;;;5.10;98.20;;;;;;8230851;28;20061;-75
2021/01/22 09:06:08;;;;;;;18.98;3.85;;;5.10;98.20;;;;;;8249999;28;20050;-75
2021/01/22 09:10:27;;;;;;;22.53;5.37;;;5.10;98.10;;;;;;8223149;28;20046;-75
2021/01/22 09:14:49;;;;;;;17.27;2.80;;;5.20;98.10;;;;;;8239471;28;20467;-75
2021/01/22 09:18:58;;;;;;;16.65;2.85;;;5.20;98.60;;;;;;8226332;28;20132;-75
2021/01/22 09:23:04;;;;;;;11.48;2.38;;;5.10;98.70;;;;;;8225555;28;20290;-76
2021/01/22 09:27:06;;;;;;;15.80;2.92;;;5.20;99.10;;;;;;8243342;28;20054;-76
2021/01/22 09:31:07;;;;;;;15.38;2.30;;;6.00;99.30;;;;;;8223178;28;20082;-76
2021/01/22 09:35:09;;;;;;;17.45;3.08;;;5.00;98.70;;;;;;8231671;28;20085;-75
2021/01/22 09:39:11;;;;;;;20.52;2.83;;;5.00;98.80;;;;;;8215228;28;20053;-77
2021/01/22 09:43:15;;;;;;;24.75;3.72;;;5.50;99.20;;;;;;8223860;28;20054;-78
2021/01/22 09:47:16;;;;;;;21.80;3.50;;;5.00;99.20;;;;;;8227376;28;20046;-77
2021/01/22 09:51:18;;;;;;;17.20;2.90;;;5.10;98.70;;;;;;8215718;28;20043;-78
2021/01/22 09:55:20;;;;;;;18.60;3.33;;;5.10;99.30;;;;;;8202733;28;20046;-74
2021/01/22 09:59:21;;;;;;;22.55;2.85;;;5.20;98.90;;;;;;8233070;28;20145;-79
2021/01/22 10:03:23;;;;;;;23.90;2.85;;;5.20;98.80;;;;;;8233475;28;20729;-74
2021/01/22 10:07:24;;;;;;;21.77;3.25;;;6.00;98.70;;;;;;8211230;28;20077;-78
2021/01/22 10:11:26;;;;;;;22.30;3.17;;;5.20;99.10;;;;;;8246922;28;20134;-76
2021/01/22 10:15:27;;;;;;;32.90;3.85;;;5.20;99.00;;;;;;8223397;28;21125;-74
2021/01/22 10:19:29;;;;;;;23.93;2.73;;;5.20;98.70;;;;;;8234710;28;20555;-73
2021/01/22 10:23:30;;;;;;;16.63;2.60;;;4.60;98.90;;;;;;8225274;28;20472;-73
2021/01/22 10:27:32;;;;;;;22.38;3.58;;;5.20;99.20;;;;;;8238415;28;20085;-73
2021/01/22 10:31:35;;;;;;;16.15;2.97;;;5.30;98.50;;;;;;8229002;28;23230;-73
2021/01/22 10:35:37;;;;;;;23.40;3.28;;;5.30;98.50;;;;;;8229862;28;20137;-75
2021/01/22 10:39:38;;;;;;;23.50;3.57;;;5.40;99.00;;;;;;8226972;28;20056;-77
2021/01/22 10:43:40;;;;;;;13.50;2.93;;;5.60;98.70;;;;;;8241072;28;20093;-77
2021/01/22 10:47:41;;;;;;;14.73;2.77;;;5.40;99.20;;;;;;8235670;28;20042;-76
2021/01/22 10:51:43;;;;;;;18.20;3.38;;;5.40;98.50;;;;;;8227435;28;32368;-77
2021/01/22 10:55:45;;;;;;;21.83;3.83;;;5.50;98.90;;;;;;8243146;28;20053;-77
2021/01/22 10:59:47;;;;;;;;;;;5.40;98.90;;;;;;8196589;28;20058;-77
2021/01/22 11:03:48;;;;;;;21.50;3.33;;;5.40;99.30;;;;;;8237407;28;19926;-78
2021/01/22 11:07:49;;;;;;;19.00;2.93;;;5.50;98.80;;;;;;8234767;28;20566;-77
2021/01/22 11:11:53;;;;;;;17.07;2.27;;;5.50;98.70;;;;;;8224174;28;24510;-78
2021/01/22 11:15:54;;;;;;;20.58;3.67;;;5.50;98.40;;;;;;8203000;28;20047;-79
2021/01/22 11:19:56;;;;;;;24.37;3.70;;;5.60;98.10;;;;;;8186807;28;20050;-77
2021/01/22 11:23:58;;;;;;;17.88;2.78;;;5.70;98.10;;;;;;8210338;28;20057;-77
2021/01/22 11:27:59;;;;;;;15.33;2.20;;;5.70;98.10;;;;;;8156066;28;20042;-78
2021/01/22 11:32:00;;;;;;;21.25;2.83;;;5.70;98.40;;;;;;8199161;28;20081;-77
2021/01/22 11:36:02;;;;;;;37.63;5.18;;;5.60;98.30;;;;;;8236884;28;20566;-79
2021/01/22 11:40:05;;;;;;;29.77;3.95;;;5.60;97.90;;;;;;8236822;28;20077;-77
2021/01/22 11:44:09;;;;;;;24.10;3.50;;;5.60;98.40;;;;;;8225106;28;20054;-77
2021/01/22 11:48:11;;;;;;;28.65;4.03;;;5.60;98.20;;;;;;8220554;28;20097;-78
2021/01/22 11:52:13;;;;;;;;;;;5.60;98.20;;;;;;8236143;28;20132;-79
2021/01/22 11:56:14;;;;;;;15.07;2.22;;;5.60;98.10;;;;;;8248610;28;20425;-77
2021/01/22 12:00:17;;;;;;;19.27;2.83;;;6.10;98.00;;;;;;8232814;28;20534;-77
2021/01/22 12:04:18;;;;;;;;;;;5.70;97.80;;;;;;8229093;28;20061;-77
2021/01/22 12:08:19;;;;;;;26.30;3.47;;;5.70;98.10;;;;;;8220106;28;19976;-77
2021/01/22 12:12:22;;;;;;;27.47;4.67;;;5.60;98.20;;;;;;8238533;28;20685;-77
2021/01/22 12:16:24;;;;;;;20.42;3.70;;;5.60;97.80;;;;;;8227396;28;20468;-77
2021/01/22 12:20:25;;;;;;;20.35;3.65;;;5.70;98.20;;;;;;8236660;28;20542;-77
2021/01/22 12:24:27;;;;;;;19.23;3.43;;;5.60;97.70;;;;;;8216739;28;20046;-77
2021/01/22 12:28:29;;;;;;;19.33;3.63;;;5.70;97.70;;;;;;8238747;28;20054;-77
2021/01/22 12:32:30;;;;;;;25.23;4.65;;;6.50;97.80;;;;;;8234274;28;20181;-77
2021/01/22 12:36:33;;;;;;;21.75;3.70;;;5.70;97.60;;;;;;8233531;28;20451;-77
2021/01/22 12:40:34;;;;;;;22.25;3.60;;;5.60;97.60;;;;;;8206301;28;20105;-77
2021/01/22 12:44:37;;;;;;;26.30;4.68;;;6.10;97.80;;;;;;8197139;28;20121;-77
2021/01/22 12:48:39;;;;;;;17.35;3.35;;;5.70;98.00;;;;;;8219259;28;20057;-78
2021/01/22 12:52:41;;;;;;;23.38;3.88;;;5.30;98.10;;;;;;8240343;28;20157;-77
2021/01/22 12:56:42;;;;;;;29.77;4.77;;;5.80;98.10;;;;;;8240462;28;20097;-78
2021/01/22 13:00:44;;;;;;;18.73;3.37;;;5.70;97.90;;;;;;8234703;28;20571;-79
2021/01/22 13:04:45;;;;;;;21.47;2.90;;;5.70;97.90;;;;;;8231808;28;21151;-77
2021/01/22 13:08:46;;;;;;;26.43;2.53;;;5.80;97.70;;;;;;8252517;28;20133;-77
2021/01/22 13:12:49;;;;;;;24.30;5.73;;;5.70;97.80;;;;;;8231121;28;20124;-77
2021/01/22 13:16:50;;;;;;;21.58;3.78;;;5.80;97.80;;;;;;8236983;28;20058;-77
2021/01/22 13:20:52;;;;;;;21.85;3.55;;;5.80;97.70;;;;;;8228361;28;20054;-77
2021/01/22 13:25:07;;;;;;;25.75;4.72;;;5.70;97.60;;;;;;8244479;28;20109;-77
2021/01/22 13:29:08;;;;;;;20.52;3.42;;;5.80;97.50;;;;;;8225547;28;20058;-77
2021/01/22 13:33:10;;;;;;;22.63;4.00;;;5.70;97.60;;;;;;8230906;28;20072;-77
2021/01/22 13:37:11;;;;;;;21.90;3.88;;;6.00;97.90;;;;;;8239939;28;20500;-77
2021/01/22 13:41:13;;;;;;;20.27;4.65;;;5.80;97.70;;;;;;8231494;28;20182;-78
2021/01/22 13:45:15;;;;;;;25.93;3.93;;;5.70;97.80;;;;;;8247332;28;20708;-77
2021/01/22 13:49:35;;;;;;;25.17;3.67;;;5.70;98.00;;;;;;8226731;28;20062;-77
2021/01/22 13:53:37;;;;;;;28.52;4.40;;;5.70;97.70;;;;;;8229347;28;20491;-80
2021/01/22 13:57:39;;;;;;;28.52;3.78;;;5.70;97.60;;;;;;8255457;28;20053;-78
2021/01/22 14:01:40;;;;;;;10.13;2.63;;;5.80;97.30;;;;;;8219263;28;20097;-78
2021/01/22 14:05:44;;;;;;;16.85;2.25;;;5.80;97.20;;;;;;8240158;28;20050;-79
2021/01/22 14:09:45;;;;;;;24.02;4.15;;;6.10;96.90;;;;;;8245233;28;20072;-80
2021/01/22 14:13:47;;;;;;;27.50;3.80;;;5.70;96.80;;;;;;8235694;28;20138;-78
2021/01/22 14:17:48;;;;;;;27.67;3.97;;;7.20;97.30;;;;;;8230665;28;20061;-76
2021/01/22 14:21:50;;;;;;;24.00;3.65;;;6.20;97.10;;;;;;8254724;28;20046;-77
2021/01/22 14:25:52;;;;;;;26.53;5.17;;;5.70;97.10;;;;;;8241032;28;20504;-77
2021/01/22 14:29:54;;;;;;;22.88;3.67;;;5.70;97.00;;;;;;8240807;28;20057;-77
2021/01/22 14:33:55;;;;;;;14.67;4.03;;;5.70;97.00;;;;;;8231430;28;20049;-77
2021/01/22 14:37:57;;;;;;;21.27;3.83;;;5.70;97.30;;;;;;8228924;28;20050;-76
2021/01/22 14:41:58;;;;;;;19.13;3.05;;;5.60;97.70;;;;;;8211664;28;20042;-77
2021/01/22 14:46:00;;;;;;;18.85;3.33;;;5.60;97.80;;;;;;8240596;28;20062;-77
2021/01/22 14:55:35;;;;;;;23.80;3.03;;;5.50;97.90;;;;;;8176076;23;20045;-78
2021/01/22 14:59:37;;;;;;;19.17;3.38;;;5.40;98.00;;;;;;8164833;28;20059;-78
2021/01/22 15:03:38;;;;;;;20.50;3.50;;;5.20;98.20;;;;;;8175851;28;20058;-79
2021/01/22 15:07:40;;;;;;;19.88;3.47;;;5.20;98.20;;;;;;8163144;23;20055;-77
2021/01/22 15:11:43;;;;;;;15.10;3.00;;;5.80;98.60;;;;;;8173199;28;20045;-77
2021/01/22 15:15:45;;;;;;;16.73;3.00;;;5.10;98.60;;;;;;8160618;28;20065;-77
2021/01/22 15:19:47;;;;;;;14.55;3.30;;;5.00;99.10;;;;;;8156025;28;20118;-77
2021/01/22 15:23:51;;;;;;;13.88;2.47;;;4.90;98.60;;;;;;8171289;28;20063;-78
2021/01/22 15:27:53;;;;;;;24.77;3.72;;;4.90;98.70;;;;;;8177177;28;20071;-77
2021/01/22 15:31:55;;;;;;;28.00;4.00;;;4.90;98.90;;;;;;8155902;28;20078;-77
2021/01/22 15:35:58;;;;;;;20.65;2.70;;;5.10;98.90;;;;;;8178721;28;20504;-78
2021/01/22 15:40:04;;;;;;;16.85;3.17;;;6.50;99.40;;;;;;8181535;28;20047;-77
2021/01/22 15:44:06;;;;;;;20.90;3.80;;;4.80;99.30;;;;;;8161766;28;20051;-77
2021/01/22 15:48:08;;;;;;;26.48;5.40;;;5.00;99.30;;;;;;8157905;28;20079;-77
2021/01/22 15:52:09;;;;;;;26.40;4.78;;;4.80;99.30;;;;;;8161511;28;20058;-76
2021/01/22 15:56:13;;;;;;;23.93;4.97;;;6.60;99.40;;;;;;8156790;28;20055;-77
2021/01/22 16:00:15;;;;;;;31.90;4.75;;;4.80;99.00;;;;;;8140936;28;20114;-76
2021/01/22 16:04:17;;;;;;;25.80;3.58;;;4.80;99.10;;;;;;8164069;28;20065;-77
2021/01/22 16:08:18;;;;;;;23.70;3.50;;;4.90;99.20;;;;;;8176484;28;20070;-77
2021/01/22 16:12:19;;;;;;;20.40;3.30;;;4.70;99.30;;;;;;8179658;28;20082;-78
2021/01/22 16:16:23;;;;;;;20.00;3.35;;;5.40;99.40;;;;;;8201316;28;20054;-78
2021/01/22 16:20:25;;;;;;;19.53;3.63;;;4.80;99.00;;;;;;8217990;28;20055;-78
2021/01/22 16:24:26;;;;;;;20.83;3.27;;;5.00;99.00;;;;;;8204929;28;20521;-78
2021/01/22 16:28:31;;;;;;;31.02;4.85;;;4.90;99.30;;;;;;8219108;28;20047;-77
2021/01/22 16:32:33;;;;;;;36.30;5.20;;;4.90;98.80;;;;;;8112533;29;20051;-77
2021/01/22 16:36:35;;;;;;;19.05;3.65;;;4.90;98.60;;;;;;8098321;29;20075;-79
2021/01/22 16:40:36;;;;;;;15.83;3.67;;;4.90;98.60;;;;;;8098552;28;20096;-79
2021/01/22 16:44:41;;;;;;;24.92;4.35;;;5.40;98.30;;;;;;8121931;29;20605;-78
2021/01/22 17:08:25;;;;;;;13.63;2.72;;;5.00;98.70;;;;;;9162958;23;20057;-78
2021/01/22 17:12:26;;;;;;;23.53;3.03;;;5.00;98.40;;;;;;8050709;29;20049;-78
2021/01/22 17:16:28;;;;;;;13.27;3.37;;;5.70;98.70;;;;;;8040018;29;20095;-77
2021/01/22 17:20:30;;;;;;;27.35;3.33;;;5.10;98.40;;;;;;8069990;29;20060;-79
2021/01/22 17:24:31;;;;;;;19.13;2.63;;;5.90;98.50;;;;;;8069376;29;20052;-78
2021/01/22 17:39:15;;;;;;;25.23;3.92;;;5.00;98.60;;;;;;9844625;23;20131;31
2021/01/22 17:43:16;;;;;;;17.35;2.63;;;4.90;98.80;;;;;;7981389;29;20046;-77
2021/01/22 17:47:18;;;;;;;23.17;3.90;;;4.90;99.00;;;;;;7957387;29;20757;-77
2021/01/22 17:51:20;;;;;;;27.23;4.38;;;4.60;98.60;;;;;;7958821;29;20079;-77
2021/01/22 17:55:21;;;;;;;26.92;3.85;;;5.50;99.10;;;;;;7947061;29;20054;-78
2021/01/22 17:59:23;;;;;;;19.35;3.58;;;5.00;99.00;;;;;;7943118;29;20079;-77
2021/01/22 18:03:24;;;;;;;20.63;3.10;;;5.10;99.00;;;;;;7952590;29;20051;-78
2021/01/22 18:07:26;;;;;;;23.73;4.75;;;5.00;99.00;;;;;;7975129;29;20537;-79
2021/01/22 18:11:29;;;;;;;24.80;3.63;;;5.00;99.40;;;;;;7956255;29;20059;-77
2021/01/22 18:15:32;;;;;;;28.38;3.85;;;4.80;99.40;;;;;;7943373;29;20062;-78
2021/01/22 18:19:34;;;;;;;24.00;3.20;;;4.90;99.20;;;;;;7951308;29;20051;-78
2021/01/22 18:23:35;;;;;;;26.50;4.07;;;4.90;98.80;;;;;;7943511;29;20050;-77
2021/01/22 18:27:36;;;;;;;25.17;3.90;;;5.00;99.00;;;;;;7945736;29;20061;-77
2021/01/22 18:31:38;;;;;;;29.20;3.63;;;6.50;99.60;;;;;;7945835;29;20066;-77
2021/01/22 18:35:40;;;;;;;26.13;4.25;;;5.50;99.80;;;;;;7940473;29;20543;-77
2021/01/22 18:39:42;;;;;;;27.55;5.47;;;4.90;99.30;;;;;;7930007;29;20642;-77
2021/01/22 18:43:43;;;;;;;25.03;4.70;;;4.90;99.20;;;;;;7938443;29;20062;-77
2021/01/22 18:47:47;;;;;;;17.08;3.08;;;5.00;99.50;;;;;;7929287;29;20064;-77
2021/01/22 18:51:49;;;;;;;26.23;3.72;;;4.90;99.30;;;;;;7936429;29;20138;-78
2021/01/22 18:55:51;;;;;;;16.65;3.35;;;4.90;99.40;;;;;;7938517;29;20054;-77
2021/01/22 18:59:53;;;;;;;13.00;2.17;;;5.00;99.50;;;;;;7944446;29;20058;-77
2021/01/22 19:03:54;;;;;;;18.17;3.45;;;5.00;99.30;;;;;;7931961;29;20054;-78
2021/01/22 19:07:56;;;;;;;18.40;3.92;;;5.00;99.00;;;;;;7947076;29;20497;-77
2021/01/22 19:11:58;;;;;;;20.00;3.33;;;5.20;99.30;;;;;;7954557;29;20064;-77
2021/01/22 19:16:00;;;;;;;24.90;3.75;;;5.00;98.80;;;;;;7943480;29;20058;-77
2021/01/22 19:20:03;;;;;;;;;;;5.30;99.10;;;;;;7925993;29;20368;-77
2021/01/22 19:24:04;;;;;;;;;;;5.00;99.70;;;;;;7956609;29;20456;-77
2021/01/22 19:28:07;;;;;;;16.00;2.73;;;5.00;99.90;;;;;;7962958;29;20615;-77
2021/01/22 19:32:08;;;;;;;;;;;6.70;99.70;;;;;;7948764;29;20070;-77
2021/01/22 19:36:13;;;;;;;31.88;5.38;;;4.90;99.40;;;;;;7943018;29;19925;-76
2021/01/22 19:40:14;;;;;;;22.88;4.32;;;5.00;99.30;;;;;;7958375;29;20059;-77
2021/01/22 19:44:16;;;;;;;38.30;4.35;;;5.00;99.10;;;;;;7959597;29;20088;-77
2021/01/22 19:48:17;;;;;;;29.52;4.45;;;5.10;99.40;;;;;;7951136;29;20088;-76
2021/01/22 19:52:19;;;;;;;25.77;3.53;;;5.00;98.90;;;;;;7958526;29;20062;-78
2021/01/22 19:56:20;;;;;;;25.27;3.40;;;5.90;99.50;;;;;;7947427;29;20399;-77
2021/01/22 20:00:22;;;;;;;22.90;3.80;;;5.10;99.20;;;;;;7942972;29;20119;-77
2021/01/22 20:04:25;;;;;;;27.55;3.72;;;5.10;99.10;;;;;;7979885;29;20089;-76
2021/01/22 20:08:26;;;;;;;19.10;2.88;;;5.00;98.70;;;;;;7955392;29;20065;-75
2021/01/22 20:12:28;;;;;;;14.07;2.60;;;5.20;98.90;;;;;;7957753;29;20126;-75
2021/01/22 20:16:29;;;;;;;17.63;3.50;;;5.10;98.70;;;;;;7965690;29;20087;-74
2021/01/22 20:20:31;;;;;;;13.32;1.95;;;5.00;98.70;;;;;;7952946;29;20500;-75
2021/01/22 20:24:32;;;;;;;17.92;3.20;;;5.00;98.70;;;;;;7967856;29;20093;-75
2021/01/22 20:28:34;;;;;;;14.68;2.90;;;6.70;99.20;;;;;;7941072;29;20519;-74
2021/01/22 20:32:36;;;;;;;22.58;3.17;;;5.00;98.70;;;;;;7962592;29;20060;-75
2021/01/22 20:36:37;;;;;;;23.08;3.30;;;5.00;98.70;;;;;;7961523;29;20058;-75
2021/01/22 20:40:40;;;;;;;13.73;2.58;;;5.10;98.90;;;;;;7968853;29;21299;-76
2021/01/22 20:44:42;;;;;;;17.20;3.00;;;4.90;98.30;;;;;;7952475;29;20107;-74
2021/01/22 20:48:46;;;;;;;19.67;3.07;;;4.90;98.40;;;;;;7969725;29;20484;-75
2021/01/22 20:52:48;;;;;;;24.88;2.70;;;4.90;98.60;;;;;;7972676;29;21004;-74
2021/01/22 20:56:50;;;;;;;18.33;1.83;;;5.90;99.10;;;;;;7970250;29;20086;-74
2021/01/22 21:00:51;;;;;;;20.23;3.42;;;4.80;98.50;;;;;;7976993;29;20076;-74
2021/01/22 21:04:53;;;;;;;13.82;3.10;;;4.30;98.40;;;;;;7966178;29;20050;-74
2021/01/22 21:08:54;;;;;;;18.33;3.35;;;4.60;98.80;;;;;;7979013;29;20074;-75
2021/01/22 21:12:56;;;;;;;26.25;3.65;;;4.80;98.80;;;;;;7972303;29;20142;-75
2021/01/22 21:16:58;;;;;;;20.17;3.22;;;4.70;98.80;;;;;;7958929;29;20086;-76
2021/01/22 21:20:59;;;;;;;20.13;3.58;;;4.70;98.60;;;;;;7944562;29;20093;-76
2021/01/22 21:25:01;;;;;;;18.07;3.27;;;4.60;98.50;;;;;;7952251;29;20479;-75
2021/01/22 21:29:05;;;;;;;22.88;3.28;;;4.60;98.40;;;;;;7947591;29;20466;-75
2021/01/22 21:33:07;;;;;;;16.42;3.28;;;4.50;98.60;;;;;;7950366;29;20046;-75
2021/01/22 21:37:09;;;;;;;19.83;3.35;;;4.60;98.60;;;;;;7958127;29;20058;-75
2021/01/22 21:41:11;;;;;;;;;;;4.50;98.60;;;;;;7951698;29;20046;-75
2021/01/22 21:45:13;;;;;;;24.98;3.47;;;4.50;98.90;;;;;;7949599;29;19928;-75
2021/01/22 21:49:14;;;;;;;19.88;4.32;;;4.10;98.40;;;;;;7965977;29;20058;-75
2021/01/22 21:53:15;;;;;;;15.00;3.85;;;4.50;98.60;;;;;;7973798;29;20054;-76